Time;durP1;ratioP1;P1;durP2;ratioP2;P2;SDS_P1;SDS_P2;PMS_P1;PMS_P2;Temp;Humidity;BMP_temperature;BMP_pressure;BME280_temperature;BME280_humidity;BME280_pressure;Samples;Min_cycle;Max_cycle;Signal;HPM_P1;HPM_P2
2022/06/04 00:01:12;;;;;;;10.65;5.05;;;12.80;99.90;;;;;;5116761;27;20399;-77
2022/06/04 00:03:39;;;;;;;9.60;4.77;;;12.80;99.90;;;;;;5131769;27;20403;-78
2022/06/04 00:06:05;;;;;;;8.40;4.30;;;12.80;99.90;;;;;;5130369;27;20494;-78
2022/06/04 00:08:33;;;;;;;11.32;4.85;;;12.80;99.90;;;;;;5120805;27;20495;-77
2022/06/04 00:16:29;;;;;;;13.02;5.03;;;12.70;99.90;;;;;;5130109;27;20896;-78
2022/06/04 00:18:55;;;;;;;10.50;4.63;;;12.70;99.90;;;;;;5130710;27;20459;-77
2022/06/04 00:21:22;;;;;;;11.17;5.03;;;12.70;99.90;;;;;;5131467;27;20391;-77
2022/06/04 00:23:48;;;;;;;11.27;5.45;;;12.70;99.90;;;;;;5121831;27;21176;-77
2022/06/04 00:26:14;;;;;;;9.82;5.50;;;12.70;99.90;;;;;;5120188;27;20408;-77
2022/06/04 00:28:39;;;;;;;10.07;5.50;;;12.70;99.90;;;;;;5125862;27;20430;-78
2022/06/04 00:31:06;;;;;;;11.50;5.60;;;12.60;99.90;;;;;;5130074;27;20426;-77
2022/06/04 00:33:32;;;;;;;11.77;5.97;;;12.60;99.90;;;;;;5130076;27;20415;-77
2022/06/04 00:36:00;;;;;;;11.88;5.60;;;12.60;99.90;;;;;;5129800;27;20459;-77
2022/06/04 00:38:28;;;;;;;12.07;5.80;;;12.60;99.90;;;;;;5129673;27;20407;-77
2022/06/04 00:41:16;;;;;;;14.35;5.90;;;12.50;99.90;;;;;;5130915;27;20413;-77
2022/06/04 00:44:24;;;;;;;13.07;5.75;;;12.50;99.90;;;;;;5112201;27;20410;-77
2022/06/04 00:47:12;;;;;;;10.88;5.70;;;12.50;99.90;;;;;;5129206;27;20410;-77
2022/06/04 00:49:38;;;;;;;11.73;6.05;;;12.50;99.90;;;;;;5116640;27;20475;-78
2022/06/04 00:52:07;;;;;;;12.90;5.65;;;12.50;99.90;;;;;;5115690;27;20432;-77
2022/06/04 00:54:33;;;;;;;11.73;5.60;;;12.40;99.90;;;;;;5130629;27;20493;-77
2022/06/04 00:57:26;;;;;;;13.30;5.72;;;12.40;99.90;;;;;;5112257;27;20502;-77
2022/06/04 01:00:08;;;;;;;14.87;6.07;;;12.40;99.90;;;;;;5116292;27;20407;-77
2022/06/04 01:02:55;;;;;;;13.13;5.95;;;12.40;99.90;;;;;;5129647;27;20943;-77
2022/06/04 01:05:39;;;;;;;11.30;5.72;;;12.40;99.90;;;;;;5129769;27;20813;-77
2022/06/04 01:08:27;;;;;;;10.02;5.57;;;12.30;99.90;;;;;;5114319;27;20493;-77
2022/06/04 01:11:21;;;;;;;14.43;6.15;;;12.30;99.90;;;;;;5130074;27;20433;-77
2022/06/04 01:14:05;;;;;;;11.77;5.65;;;12.30;99.90;;;;;;5129341;27;20415;-78
2022/06/04 01:17:11;;;;;;;11.82;5.95;;;12.30;99.90;;;;;;5128854;27;20415;-77
2022/06/04 01:20:10;;;;;;;14.10;6.03;;;12.30;99.90;;;;;;5128995;27;20411;-78
2022/06/04 01:23:02;;;;;;;12.20;6.17;;;12.30;99.90;;;;;;5121584;27;20408;-77
2022/06/04 01:25:45;;;;;;;13.45;6.10;;;12.30;99.90;;;;;;5128786;27;20434;-77
2022/06/04 01:28:16;;;;;;;12.25;5.72;;;12.20;99.90;;;;;;5115561;27;20507;-78
2022/06/04 01:30:51;;;;;;;13.20;5.68;;;12.20;99.90;;;;;;5126938;27;20427;-78
2022/06/04 01:33:38;;;;;;;10.13;5.50;;;12.30;99.90;;;;;;5115166;27;20443;-78
2022/06/04 01:36:26;;;;;;;13.35;5.80;;;12.20;99.90;;;;;;5115897;27;20398;-78
2022/06/04 01:38:57;;;;;;;11.63;5.40;;;12.20;99.90;;;;;;5119985;27;20517;-78
2022/06/04 01:41:33;;;;;;;11.75;6.00;;;12.20;99.90;;;;;;5120523;27;20426;-77
2022/06/04 01:44:24;;;;;;;12.17;5.70;;;12.20;99.90;;;;;;5118595;27;20404;-78
2022/06/04 01:46:53;;;;;;;11.73;5.53;;;12.20;99.90;;;;;;5115341;27;20438;-78
2022/06/04 01:49:28;;;;;;;13.35;5.05;;;12.20;99.90;;;;;;5108931;28;20396;-78
2022/06/04 01:51:59;;;;;;;10.43;4.85;;;12.20;99.90;;;;;;5114114;27;20547;-78
2022/06/04 01:54:28;;;;;;;9.83;5.07;;;12.10;99.90;;;;;;5121648;27;20403;-78
2022/06/04 01:57:00;;;;;;;11.15;5.22;;;12.10;99.90;;;;;;5127786;27;20394;-78
2022/06/04 01:59:40;;;;;;;10.20;5.10;;;12.10;99.90;;;;;;5120024;27;20438;-78
2022/06/04 02:02:10;;;;;;;11.10;5.50;;;12.10;99.90;;;;;;5106500;28;21296;-78
2022/06/04 02:04:40;;;;;;;10.27;5.72;;;12.10;99.90;;;;;;5122132;27;20402;-78
2022/06/04 02:07:31;;;;;;;14.10;5.88;;;12.10;99.90;;;;;;5107769;28;21021;-78
2022/06/04 02:10:29;;;;;;;10.83;5.20;;;12.10;99.90;;;;;;5108672;28;20491;-78
2022/06/04 02:13:02;;;;;;;10.10;5.43;;;12.10;99.90;;;;;;5108677;28;20751;-79
2022/06/04 02:15:35;;;;;;;11.98;5.63;;;12.10;99.90;;;;;;5111557;27;21405;-77
2022/06/04 02:18:02;;;;;;;12.50;5.53;;;12.00;99.90;;;;;;5116374;27;20420;-78
2022/06/04 02:20:28;;;;;;;10.80;5.43;;;12.00;99.90;;;;;;5107545;28;20436;-78
2022/06/04 02:22:54;;;;;;;13.85;5.55;;;12.00;99.90;;;;;;5116703;27;20470;-77
2022/06/04 02:25:21;;;;;;;9.50;5.00;;;12.00;99.90;;;;;;5119877;27;20418;-78
2022/06/04 02:27:49;;;;;;;11.27;5.17;;;12.00;99.90;;;;;;5129098;27;20410;-78
2022/06/04 02:30:15;;;;;;;12.30;5.80;;;11.90;99.90;;;;;;5123664;27;20418;-78
2022/06/04 02:33:08;;;;;;;10.95;5.63;;;11.90;99.90;;;;;;5121403;27;20400;-78
2022/06/04 02:35:50;;;;;;;10.63;5.18;;;11.90;99.90;;;;;;5129093;27;20537;-78
2022/06/04 02:38:24;;;;;;;10.80;5.05;;;11.90;99.90;;;;;;5127634;27;20418;-78
2022/06/04 02:41:09;;;;;;;10.25;5.05;;;11.80;99.90;;;;;;5097829;28;20420;-78
2022/06/04 02:43:53;;;;;;;10.77;4.88;;;11.80;99.90;;;;;;5108184;27;20790;-78
2022/06/04 02:46:28;;;;;;;10.45;5.13;;;11.80;99.90;;;;;;5106999;28;20491;-78
2022/06/04 02:48:59;;;;;;;9.75;4.55;;;11.80;99.90;;;;;;5116323;27;20414;-78
2022/06/04 02:51:34;;;;;;;8.45;4.30;;;11.80;99.90;;;;;;5110458;28;20503;-78
2022/06/04 02:54:05;;;;;;;7.10;4.20;;;11.80;99.90;;;;;;5127152;27;21354;-78
2022/06/04 02:56:32;;;;;;;10.95;4.38;;;11.80;99.90;;;;;;5127755;27;20414;-78
2022/06/04 02:59:02;;;;;;;9.77;4.35;;;11.80;99.90;;;;;;5127199;27;20415;-79
2022/06/04 03:01:32;;;;;;;8.07;4.07;;;11.80;99.90;;;;;;5123311;27;20422;-79
2022/06/04 03:03:57;;;;;;;8.25;4.18;;;11.80;99.90;;;;;;5122594;27;20812;-78
2022/06/04 03:06:27;;;;;;;7.15;3.80;;;11.80;99.90;;;;;;5123742;28;20490;-78
2022/06/04 03:08:53;;;;;;;8.13;3.70;;;11.70;99.90;;;;;;5106849;28;20459;-78
2022/06/04 03:11:20;;;;;;;8.13;3.72;;;11.70;99.90;;;;;;5107937;28;20974;-77
2022/06/04 03:13:47;;;;;;;7.30;3.40;;;11.70;99.90;;;;;;5106541;28;20450;-78
2022/06/04 03:16:14;;;;;;;6.97;3.33;;;11.70;99.90;;;;;;5103786;28;20400;-78
2022/06/04 03:18:40;;;;;;;6.90;4.00;;;11.70;99.90;;;;;;5112098;28;20454;-78
2022/06/04 03:21:05;;;;;;;7.10;3.80;;;11.70;99.90;;;;;;5125598;28;20489;-77
2022/06/04 03:23:32;;;;;;;8.48;4.13;;;11.70;99.90;;;;;;5106786;28;20400;-78
2022/06/04 03:25:57;;;;;;;5.55;3.58;;;11.70;99.90;;;;;;5106785;28;20412;-78
2022/06/04 03:28:23;;;;;;;6.90;3.50;;;11.70;99.90;;;;;;5128279;27;20402;-78
2022/06/04 03:30:49;;;;;;;6.70;3.37;;;11.70;99.90;;;;;;5126499;27;20521;-77
2022/06/04 03:33:15;;;;;;;5.97;3.40;;;11.70;99.90;;;;;;5110065;27;20392;-78
2022/06/04 03:35:42;;;;;;;6.85;3.58;;;11.80;99.90;;;;;;5111868;27;20562;-78
2022/06/04 03:38:08;;;;;;;10.30;3.53;;;11.80;99.90;;;;;;5093999;28;20408;-78
2022/06/04 03:40:34;;;;;;;6.55;3.53;;;11.80;99.90;;;;;;5106594;28;20937;-78
2022/06/04 03:43:00;;;;;;;5.80;3.47;;;11.80;99.90;;;;;;5106444;28;20404;-78
2022/06/04 03:45:26;;;;;;;7.73;3.73;;;11.80;99.90;;;;;;5106832;28;20401;-78
2022/06/04 03:47:54;;;;;;;6.88;3.65;;;11.80;99.90;;;;;;5101380;28;20919;-78
2022/06/04 03:50:20;;;;;;;5.20;3.67;;;11.80;99.90;;;;;;5122815;27;20432;-78
2022/06/04 03:52:47;;;;;;;8.38;4.10;;;11.80;99.90;;;;;;5106240;28;20408;-78
2022/06/04 03:55:15;;;;;;;6.63;3.88;;;11.80;99.90;;;;;;5110729;28;20407;-78
2022/06/04 03:57:50;;;;;;;7.15;3.60;;;11.80;99.90;;;;;;5111305;28;20389;-78
2022/06/04 04:00:34;;;;;;;7.60;3.38;;;11.90;99.90;;;;;;5109656;28;20901;-78
2022/06/04 04:03:12;;;;;;;6.53;3.65;;;11.90;99.90;;;;;;5110338;28;20563;-78
2022/06/04 04:05:44;;;;;;;5.85;3.50;;;11.90;99.90;;;;;;5111715;27;20422;-78
2022/06/04 04:08:09;;;;;;;4.43;3.43;;;12.00;99.90;;;;;;5129889;27;20407;-78
2022/06/04 04:10:38;;;;;;;6.15;3.65;;;12.00;99.90;;;;;;5122898;27;20429;-78
2022/06/04 04:13:04;;;;;;;8.10;3.83;;;12.00;99.90;;;;;;5109625;28;20408;-78
2022/06/04 04:15:29;;;;;;;7.43;3.70;;;12.00;99.90;;;;;;5124362;27;20480;-78
2022/06/04 04:17:55;;;;;;;8.55;4.05;;;12.10;99.90;;;;;;5110864;28;20957;-78
2022/06/04 04:20:24;;;;;;;6.87;4.07;;;12.10;99.90;;;;;;5110797;28;20475;-78
2022/06/04 04:22:50;;;;;;;5.60;3.60;;;12.10;99.90;;;;;;5113509;27;20407;-78
2022/06/04 04:25:20;;;;;;;6.65;3.60;;;12.20;99.90;;;;;;5119393;27;20735;-78
2022/06/04 04:27:46;;;;;;;6.17;4.00;;;12.20;99.90;;;;;;5092213;28;20408;-78
2022/06/04 04:30:15;;;;;;;6.13;3.70;;;12.20;99.90;;;;;;5118482;27;20430;-78
2022/06/04 04:32:41;;;;;;;7.15;3.97;;;12.20;99.90;;;;;;5113743;27;20473;-78
2022/06/04 04:35:12;;;;;;;7.60;4.20;;;12.30;99.90;;;;;;5110754;28;20787;-78
2022/06/04 04:37:38;;;;;;;7.83;4.30;;;12.30;99.90;;;;;;5106603;27;20473;-78
2022/06/04 04:40:05;;;;;;;9.48;4.18;;;12.30;99.90;;;;;;5117488;27;20404;-79
2022/06/04 04:42:30;;;;;;;7.57;3.90;;;12.40;99.90;;;;;;5117222;27;20404;-78
2022/06/04 04:44:56;;;;;;;7.63;4.20;;;12.40;99.90;;;;;;5109138;28;20412;-78
2022/06/04 04:47:21;;;;;;;6.30;3.73;;;12.40;99.90;;;;;;5110321;28;20925;-78
2022/06/04 04:49:47;;;;;;;6.30;4.28;;;12.50;99.90;;;;;;5108797;28;20396;-78
2022/06/04 04:52:13;;;;;;;6.53;4.10;;;12.50;99.90;;;;;;5109226;28;20446;-78
2022/06/04 04:54:38;;;;;;;6.20;4.40;;;12.50;99.90;;;;;;5109889;28;20476;-77
2022/06/04 04:57:04;;;;;;;8.00;4.47;;;12.50;99.90;;;;;;5110344;28;20397;-78
2022/06/04 04:59:30;;;;;;;6.90;4.13;;;12.50;99.90;;;;;;5109195;28;20983;-78
2022/06/04 05:01:56;;;;;;;6.95;4.10;;;12.60;99.90;;;;;;5108926;28;20483;-78
2022/06/04 05:04:22;;;;;;;7.27;4.67;;;12.60;99.90;;;;;;5110140;28;20401;-77
2022/06/04 05:06:47;;;;;;;5.67;4.27;;;12.60;99.90;;;;;;5124381;27;20741;-78
2022/06/04 05:09:14;;;;;;;7.10;4.35;;;12.60;99.90;;;;;;5108934;28;20415;-78
2022/06/04 05:11:39;;;;;;;7.30;4.68;;;12.70;99.90;;;;;;5109820;28;20526;-78
2022/06/04 05:14:05;;;;;;;9.03;4.70;;;12.70;99.90;;;;;;5108392;28;20899;-78
2022/06/04 05:16:35;;;;;;;6.20;4.18;;;12.80;99.90;;;;;;5108758;28;20535;-78
2022/06/04 05:19:01;;;;;;;7.90;4.32;;;12.80;99.90;;;;;;5108617;28;20459;-78
2022/06/04 05:21:48;;;;;;;6.50;4.10;;;12.80;99.90;;;;;;5107871;28;20983;-78
2022/06/04 05:24:24;;;;;;;6.25;3.97;;;12.90;99.90;;;;;;5124674;27;20402;-78
2022/06/04 05:26:50;;;;;;;6.55;4.35;;;12.90;99.90;;;;;;5119106;27;20427;-78
2022/06/04 05:29:17;;;;;;;9.48;5.13;;;12.90;99.90;;;;;;5111119;27;20460;-78
2022/06/04 05:31:45;;;;;;;7.20;4.45;;;12.90;99.90;;;;;;5120688;27;20424;-78
2022/06/04 05:34:12;;;;;;;5.80;4.20;;;12.80;99.90;;;;;;5108265;28;20411;-78
2022/06/04 05:36:39;;;;;;;6.15;4.30;;;12.80;99.90;;;;;;5108585;28;20804;-78
2022/06/04 05:39:06;;;;;;;7.40;4.53;;;12.80;99.90;;;;;;5122102;27;20417;-77
2022/06/04 05:41:32;;;;;;;6.38;4.00;;;12.80;99.90;;;;;;5110583;27;20436;-78
2022/06/04 05:43:58;;;;;;;7.68;4.60;;;12.90;99.90;;;;;;5109868;28;20422;-78
2022/06/04 05:46:24;;;;;;;6.13;4.32;;;13.00;99.90;;;;;;5109542;28;20404;-78
2022/06/04 05:48:49;;;;;;;7.30;4.40;;;13.00;99.90;;;;;;5109241;28;20411;-78
2022/06/04 05:51:25;;;;;;;6.25;3.97;;;13.10;99.90;;;;;;5107063;28;20533;-78
2022/06/04 05:53:51;;;;;;;7.63;4.30;;;13.10;99.90;;;;;;5109145;28;20412;-78
2022/06/04 05:56:28;;;;;;;6.10;4.43;;;13.10;99.90;;;;;;5122011;27;20405;-78
2022/06/04 05:58:59;;;;;;;7.65;4.32;;;13.10;99.90;;;;;;5120618;27;20404;-78
2022/06/04 06:01:27;;;;;;;8.50;4.20;;;13.10;99.90;;;;;;5109017;27;20401;-79
2022/06/04 06:03:53;;;;;;;5.95;4.00;;;13.10;99.90;;;;;;5121237;27;20490;-78
2022/06/04 06:06:26;;;;;;;7.40;3.93;;;13.20;99.90;;;;;;5108871;28;20430;-78
2022/06/04 06:08:52;;;;;;;5.88;4.18;;;13.20;99.90;;;;;;5108690;27;20487;-78
2022/06/04 06:11:19;;;;;;;6.20;4.07;;;13.30;99.90;;;;;;5118679;27;20522;-78
2022/06/04 06:13:47;;;;;;;5.85;3.88;;;13.40;99.90;;;;;;5107706;28;20400;-78
2022/06/04 06:16:15;;;;;;;7.07;3.87;;;13.40;99.90;;;;;;5107005;28;20412;-78
2022/06/04 06:18:41;;;;;;;6.22;4.05;;;13.40;99.90;;;;;;5106924;28;20423;-78
2022/06/04 06:21:08;;;;;;;5.30;3.70;;;13.50;99.90;;;;;;5107185;28;20412;-78
2022/06/04 06:23:35;;;;;;;5.78;3.97;;;13.50;99.90;;;;;;5119595;27;20536;-78
2022/06/04 06:26:06;;;;;;;6.75;4.10;;;13.70;99.90;;;;;;5113035;27;21015;-78
2022/06/04 06:28:34;;;;;;;5.90;3.85;;;13.70;99.90;;;;;;5127696;27;20409;-78
2022/06/04 06:31:00;;;;;;;6.43;3.80;;;13.70;99.90;;;;;;5112378;27;20431;-78
2022/06/04 06:33:25;;;;;;;7.10;4.03;;;13.70;99.90;;;;;;5106930;28;20873;-77
2022/06/04 06:35:59;;;;;;;5.68;4.03;;;13.80;99.90;;;;;;5106800;28;20408;-78
2022/06/04 06:38:24;;;;;;;5.30;3.88;;;13.90;99.90;;;;;;5108637;28;20407;-78
2022/06/04 06:40:52;;;;;;;7.18;4.18;;;13.90;99.90;;;;;;5120109;28;20427;-78
2022/06/04 06:43:18;;;;;;;6.37;4.10;;;14.00;99.90;;;;;;5109088;27;20396;-78
2022/06/04 06:45:44;;;;;;;7.20;3.97;;;14.10;99.90;;;;;;5108250;28;20396;-78
2022/06/04 06:48:10;;;;;;;8.27;4.00;;;14.20;99.90;;;;;;5124055;28;20413;-78
2022/06/04 06:50:37;;;;;;;7.43;3.95;;;14.30;99.90;;;;;;5128569;27;20423;-78
2022/06/04 06:53:03;;;;;;;6.32;3.65;;;14.30;99.90;;;;;;5112580;27;20400;-78
2022/06/04 06:55:29;;;;;;;5.40;3.28;;;14.40;99.90;;;;;;5108155;28;20937;-78
2022/06/04 06:57:54;;;;;;;5.37;3.47;;;14.40;99.90;;;;;;5089752;28;20420;-78
2022/06/04 07:00:20;;;;;;;7.18;3.80;;;14.50;99.90;;;;;;5113197;28;20758;-78
2022/06/04 07:02:46;;;;;;;6.77;4.20;;;14.70;99.90;;;;;;5116614;27;20439;-78
2022/06/04 07:05:11;;;;;;;6.32;3.42;;;14.80;99.90;;;;;;5106602;28;20882;-78
2022/06/04 07:07:37;;;;;;;5.80;3.70;;;15.10;99.90;;;;;;5115157;28;20417;-78
2022/06/04 07:10:04;;;;;;;6.82;3.72;;;15.20;99.90;;;;;;5128202;27;20409;-79
2022/06/04 07:12:31;;;;;;;6.05;3.40;;;15.30;99.90;;;;;;5120920;28;20494;-78
2022/06/04 07:14:57;;;;;;;6.03;3.03;;;15.30;99.90;;;;;;5125063;27;20498;-78
2022/06/04 07:17:23;;;;;;;5.43;3.20;;;15.30;99.90;;;;;;5114403;27;20409;-79
2022/06/04 07:19:49;;;;;;;6.38;3.10;;;15.30;99.90;;;;;;5110125;28;20401;-78
2022/06/04 07:22:15;;;;;;;5.63;3.60;;;15.30;99.90;;;;;;5108819;28;20925;-78
2022/06/04 07:24:40;;;;;;;7.10;3.40;;;15.30;99.90;;;;;;5112221;28;20398;-78
2022/06/04 07:27:07;;;;;;;5.87;3.03;;;15.20;99.90;;;;;;5110553;27;20424;-78
2022/06/04 07:29:33;;;;;;;5.50;2.88;;;15.20;99.90;;;;;;5108537;27;20452;-78
2022/06/04 07:31:58;;;;;;;4.97;3.25;;;15.40;99.90;;;;;;5118198;27;20516;-78
2022/06/04 07:34:24;;;;;;;5.30;2.80;;;15.40;99.90;;;;;;5116177;27;20461;-78
2022/06/04 07:36:50;;;;;;;4.28;2.80;;;15.40;99.90;;;;;;5113395;27;20472;-78
2022/06/04 07:39:18;;;;;;;4.05;2.70;;;15.40;99.90;;;;;;5118127;27;20404;-78
2022/06/04 07:41:51;;;;;;;5.32;3.10;;;15.50;99.90;;;;;;5115150;27;20403;-78
2022/06/04 07:44:17;;;;;;;4.68;2.72;;;15.50;99.90;;;;;;5112679;27;20400;-78
2022/06/04 07:46:44;;;;;;;4.93;2.67;;;15.50;99.90;;;;;;5114876;27;20413;-78
2022/06/04 07:49:11;;;;;;;4.13;2.60;;;15.50;99.90;;;;;;5117682;27;20468;-78
2022/06/04 07:51:37;;;;;;;4.03;2.60;;;15.50;99.90;;;;;;5111514;27;20917;-78
2022/06/04 07:54:05;;;;;;;5.68;2.88;;;15.60;99.90;;;;;;5122222;27;20402;-78
2022/06/04 07:56:31;;;;;;;6.13;3.03;;;15.70;99.90;;;;;;5108961;27;20420;-78
2022/06/04 07:58:56;;;;;;;4.20;3.10;;;15.80;99.90;;;;;;5112120;27;20408;-78
2022/06/04 08:01:23;;;;;;;5.70;3.20;;;15.90;99.90;;;;;;5119355;27;20401;-78
2022/06/04 08:03:50;;;;;;;4.32;2.72;;;15.90;99.90;;;;;;5116023;27;20770;-78
2022/06/04 08:06:17;;;;;;;6.50;3.45;;;16.00;99.90;;;;;;5113763;27;20400;-78
2022/06/04 08:08:45;;;;;;;6.38;3.00;;;16.00;99.90;;;;;;5112023;27;20465;-78
2022/06/04 08:13:55;;;;;;;5.43;2.80;;;16.00;99.90;;;;;;5123926;27;21401;-75
2022/06/04 08:16:21;;;;;;;4.75;3.22;;;16.10;99.90;;;;;;5130082;27;20489;-77
2022/06/04 08:18:47;;;;;;;5.90;3.00;;;16.10;99.90;;;;;;5130411;27;20483;-77
2022/06/04 08:21:12;;;;;;;7.07;3.35;;;16.20;99.90;;;;;;5113294;27;20493;-77
2022/06/04 08:23:44;;;;;;;6.07;3.00;;;16.20;99.90;;;;;;5117671;27;20439;-77
2022/06/04 08:26:10;;;;;;;6.43;3.10;;;16.30;99.90;;;;;;5131144;27;20452;-77
2022/06/04 08:28:36;;;;;;;5.47;3.15;;;16.40;99.90;;;;;;5127155;27;20398;-77
2022/06/04 08:31:06;;;;;;;5.40;3.00;;;16.40;99.90;;;;;;5128364;27;20436;-77
2022/06/04 08:33:32;;;;;;;6.63;3.20;;;16.50;99.90;;;;;;5125568;27;21190;-77
2022/06/04 08:35:58;;;;;;;5.32;2.97;;;16.50;99.90;;;;;;5131108;27;20507;-78
2022/06/04 08:38:24;;;;;;;5.03;2.80;;;16.50;99.90;;;;;;5129650;27;20411;-78
2022/06/04 08:40:57;;;;;;;5.55;2.80;;;16.50;99.90;;;;;;5129344;27;20402;-78
2022/06/04 08:43:51;;;;;;;5.18;2.70;;;16.60;99.90;;;;;;5095969;28;20424;-78
2022/06/04 08:46:28;;;;;;;5.15;2.95;;;16.60;99.90;;;;;;5109154;28;20416;-78
2022/06/04 08:48:55;;;;;;;4.97;2.70;;;16.70;99.90;;;;;;5123378;27;20467;-77
2022/06/04 08:51:27;;;;;;;5.63;2.70;;;16.70;99.90;;;;;;5119841;27;20489;-78
2022/06/04 08:53:55;;;;;;;5.57;3.10;;;16.70;99.90;;;;;;5127806;27;20757;-78
2022/06/04 08:59:37;;;;;;;4.05;2.45;;;16.80;99.90;;;;;;5114061;27;20428;-78
2022/06/04 09:02:09;;;;;;;5.15;3.08;;;17.00;99.90;;;;;;5115836;27;20419;-78
2022/06/04 09:05:04;;;;;;;4.88;2.92;;;17.00;99.90;;;;;;5122052;27;20427;-78
2022/06/04 09:07:35;;;;;;;4.50;2.75;;;17.10;99.90;;;;;;5118880;27;20419;-78
2022/06/04 09:10:10;;;;;;;4.28;2.58;;;17.20;99.90;;;;;;5115808;27;20435;-78
2022/06/04 09:12:39;;;;;;;5.40;2.70;;;17.20;99.90;;;;;;5112887;27;20467;-78
2022/06/04 09:15:36;;;;;;;6.10;2.90;;;17.30;99.90;;;;;;5116167;27;21167;-78
2022/06/04 09:18:15;;;;;;;3.92;2.38;;;17.30;99.90;;;;;;5122495;27;20426;-78
2022/06/04 09:20:49;;;;;;;4.22;2.30;;;17.40;99.90;;;;;;5115685;27;20440;-78
2022/06/04 09:23:37;;;;;;;4.65;2.35;;;17.50;99.90;;;;;;5130155;27;20413;-78
2022/06/04 09:26:15;;;;;;;6.07;2.78;;;17.70;99.90;;;;;;5127724;27;20450;-78
2022/06/04 09:29:09;;;;;;;5.32;2.60;;;17.80;99.90;;;;;;5117859;27;20481;-78
2022/06/04 09:31:55;;;;;;;4.40;2.50;;;18.10;99.90;;;;;;5116175;27;20954;-78
2022/06/04 09:34:35;;;;;;;5.93;2.65;;;18.30;99.90;;;;;;5126712;27;20422;-79
2022/06/04 09:37:02;;;;;;;4.35;2.20;;;18.50;99.90;;;;;;5119833;27;20427;-78
2022/06/04 09:39:30;;;;;;;5.05;2.40;;;18.70;99.90;;;;;;5128524;27;21009;-79
2022/06/04 09:42:05;;;;;;;5.43;2.25;;;18.90;99.90;;;;;;5127372;27;20422;-78
2022/06/04 09:44:36;;;;;;;4.88;2.30;;;19.00;99.90;;;;;;5105476;27;20927;-79
2022/06/04 09:47:05;;;;;;;5.13;2.50;;;19.20;99.90;;;;;;5099783;28;20480;-79
2022/06/04 09:49:51;;;;;;;3.90;2.20;;;19.30;99.90;;;;;;5125089;27;20410;-79
2022/06/04 09:52:29;;;;;;;3.47;1.98;;;19.40;99.90;;;;;;5127510;27;20473;-79
2022/06/04 09:54:58;;;;;;;4.95;2.40;;;19.60;99.90;;;;;;5129063;27;20769;-79
2022/06/04 09:57:31;;;;;;;4.60;2.28;;;19.80;99.90;;;;;;5127936;27;20424;-77
2022/06/04 09:59:59;;;;;;;4.63;2.30;;;19.90;99.90;;;;;;5126113;27;20403;-77
2022/06/04 10:02:26;;;;;;;4.40;1.92;;;20.10;99.90;;;;;;5127539;27;20410;-78
2022/06/04 10:05:18;;;;;;;3.95;2.20;;;20.30;99.50;;;;;;5116616;27;20806;-78
2022/06/04 10:07:43;;;;;;;5.10;2.30;;;20.50;99.10;;;;;;5120817;27;20445;-78
2022/06/04 10:10:12;;;;;;;4.88;2.08;;;20.60;97.70;;;;;;5127815;27;20477;-80
2022/06/04 10:15:46;;;;;;;4.63;2.00;;;20.50;97.90;;;;;;5120016;27;20433;-79
2022/06/04 10:18:35;;;;;;;3.53;1.98;;;20.60;97.40;;;;;;5126877;27;20900;-79
2022/06/04 10:21:17;;;;;;;4.45;1.95;;;20.70;97.30;;;;;;5127095;27;20404;-80
2022/06/04 10:23:46;;;;;;;2.50;1.95;;;20.90;97.20;;;;;;5118652;27;20424;-80
2022/06/04 10:26:15;;;;;;;5.10;2.50;;;21.10;97.00;;;;;;5129284;27;20426;-80
2022/06/04 10:29:15;;;;;;;3.60;2.10;;;21.20;95.90;;;;;;5127656;27;20407;-80
2022/06/04 10:31:59;;;;;;;5.00;2.20;;;21.10;95.70;;;;;;5108137;27;21199;-80
2022/06/04 10:34:35;;;;;;;4.97;2.50;;;21.00;96.30;;;;;;5126570;27;20915;-80
2022/06/04 10:37:38;;;;;;;4.40;2.17;;;20.80;96.60;;;;;;5113441;27;20406;-80
2022/06/04 10:40:39;;;;;;;5.43;2.47;;;20.70;96.50;;;;;;5110254;27;20490;-80
2022/06/04 10:43:34;;;;;;;6.28;2.67;;;20.60;96.50;;;;;;5113870;27;20799;-80
2022/06/04 10:46:35;;;;;;;7.57;2.80;;;20.50;96.70;;;;;;5120061;27;20422;-80
2022/06/04 10:49:20;;;;;;;5.20;2.67;;;20.40;97.10;;;;;;5107082;27;20418;-80
2022/06/04 10:52:14;;;;;;;4.38;2.67;;;20.40;96.90;;;;;;5127576;27;20457;-80
2022/06/04 10:54:50;;;;;;;6.18;2.42;;;20.70;97.20;;;;;;5128691;27;20438;-80
2022/06/04 10:57:28;;;;;;;5.95;2.47;;;20.90;96.40;;;;;;5126079;28;20422;-80
2022/06/04 11:00:04;;;;;;;6.20;2.67;;;21.00;95.80;;;;;;5127480;27;20810;-80
2022/06/04 11:02:41;;;;;;;6.35;2.30;;;21.10;95.20;;;;;;5127815;27;20415;-80
2022/06/04 11:05:27;;;;;;;6.13;2.35;;;20.90;94.40;;;;;;5126574;27;21225;-79
2022/06/04 11:08:04;;;;;;;5.32;2.35;;;20.80;95.10;;;;;;5121152;27;20463;-79
2022/06/04 11:10:45;;;;;;;5.18;2.33;;;20.90;95.40;;;;;;5128689;27;20429;-79
2022/06/04 11:13:25;;;;;;;4.78;2.30;;;21.20;94.70;;;;;;5116475;27;20497;-79
2022/06/04 11:16:09;;;;;;;5.35;2.33;;;21.30;94.50;;;;;;5111133;27;20404;-79
2022/06/04 11:18:57;;;;;;;4.22;1.95;;;21.50;94.20;;;;;;5113951;27;20420;-79
2022/06/04 11:21:41;;;;;;;5.53;2.20;;;21.70;93.90;;;;;;5113326;27;20416;-79
2022/06/04 11:24:24;;;;;;;6.07;2.33;;;21.50;93.40;;;;;;5111842;27;20419;-79
2022/06/04 11:26:57;;;;;;;5.30;2.50;;;21.30;93.90;;;;;;5116085;27;20925;-79
2022/06/04 11:29:23;;;;;;;4.93;2.57;;;21.10;93.70;;;;;;5110266;28;20408;-79
2022/06/04 11:32:27;;;;;;;5.57;2.50;;;20.80;94.30;;;;;;5114955;27;20428;-79
2022/06/04 11:35:03;;;;;;;6.17;2.60;;;20.50;94.20;;;;;;5050866;28;20435;-79
2022/06/04 11:37:28;;;;;;;9.20;2.75;;;20.40;94.90;;;;;;5067002;28;20427;-79
2022/06/04 11:40:02;;;;;;;5.23;2.70;;;20.30;95.30;;;;;;5063654;28;20401;-78
2022/06/04 11:42:34;;;;;;;6.10;2.80;;;20.50;95.50;;;;;;5115830;27;20423;-79
2022/06/04 11:45:17;;;;;;;7.18;2.95;;;20.50;94.50;;;;;;5108619;28;20491;-79
2022/06/04 11:47:58;;;;;;;4.90;2.42;;;20.50;94.70;;;;;;5110092;27;20455;-79
2022/06/04 11:50:23;;;;;;;6.85;2.72;;;20.40;94.60;;;;;;5108708;28;20415;-79
2022/06/04 11:53:27;;;;;;;7.93;2.50;;;20.30;94.50;;;;;;5108811;28;20432;-79
2022/06/04 11:56:19;;;;;;;5.28;2.33;;;20.10;94.70;;;;;;5113263;27;20631;-78
2022/06/04 11:59:11;;;;;;;6.10;2.55;;;20.00;94.90;;;;;;5113027;27;20484;-79
2022/06/04 12:01:50;;;;;;;6.88;2.38;;;20.30;95.50;;;;;;5108298;28;21012;-79
2022/06/04 12:04:36;;;;;;;7.38;2.25;;;20.70;95.10;;;;;;5114396;27;20443;-79
2022/06/04 12:07:12;;;;;;;6.35;2.35;;;21.00;94.60;;;;;;5118609;27;20412;-79
2022/06/04 12:09:48;;;;;;;7.60;2.50;;;21.20;93.80;;;;;;5115306;27;20412;-79
2022/06/04 12:12:34;;;;;;;7.13;2.65;;;21.30;93.80;;;;;;5117937;27;20418;-79
2022/06/04 12:15:16;;;;;;;7.28;2.70;;;21.30;93.60;;;;;;5113612;27;20435;-79
2022/06/04 12:18:18;;;;;;;6.28;2.30;;;21.20;93.90;;;;;;5123665;27;20471;-79
2022/06/04 12:26:26;;;;;;;5.47;2.53;;;21.20;93.90;;;;;;5117093;27;20418;-79
2022/06/04 12:28:53;;;;;;;7.07;2.80;;;21.40;93.80;;;;;;5112412;27;20529;-79
2022/06/04 12:31:34;;;;;;;7.53;2.60;;;21.50;93.50;;;;;;5126868;27;20435;-79
2022/06/04 12:34:01;;;;;;;5.65;2.47;;;21.50;93.60;;;;;;5129192;27;20422;-79
2022/06/04 12:36:34;;;;;;;5.95;2.65;;;21.60;93.40;;;;;;5112739;27;20397;-80
2022/06/04 12:39:20;;;;;;;6.90;2.58;;;21.70;92.30;;;;;;5128812;27;20415;-80
2022/06/04 12:41:50;;;;;;;7.40;2.40;;;21.70;93.30;;;;;;5116652;27;20908;-79
2022/06/04 12:44:33;;;;;;;6.77;2.50;;;22.00;93.10;;;;;;5127535;27;20477;-79
2022/06/04 12:47:43;;;;;;;6.38;2.45;;;22.20;93.00;;;;;;5130691;27;20442;-79
2022/06/04 12:50:18;;;;;;;8.40;2.33;;;22.20;92.10;;;;;;5098419;27;20462;-79
2022/06/04 12:52:46;;;;;;;6.47;2.65;;;22.20;92.00;;;;;;5113532;27;20929;-79
2022/06/04 12:55:27;;;;;;;8.00;2.83;;;22.10;91.80;;;;;;5116880;27;20412;-79
2022/06/04 12:58:03;;;;;;;6.82;2.65;;;22.00;92.70;;;;;;5115561;27;20466;-78
2022/06/04 13:00:42;;;;;;;6.50;2.60;;;22.20;92.10;;;;;;5117877;27;20398;-78
2022/06/04 13:03:08;;;;;;;6.32;2.25;;;22.30;91.50;;;;;;5128058;27;20414;-79
2022/06/04 13:05:58;;;;;;;5.40;2.40;;;22.50;91.30;;;;;;5114234;27;20420;-80
2022/06/04 13:08:33;;;;;;;7.13;2.33;;;22.80;90.70;;;;;;5127282;27;20417;-80
2022/06/04 13:11:13;;;;;;;6.00;2.42;;;23.20;90.70;;;;;;5130358;27;20469;-79
2022/06/04 13:14:00;;;;;;;6.20;2.42;;;23.20;89.00;;;;;;5128929;27;20768;-79
2022/06/04 13:16:28;;;;;;;8.68;2.60;;;23.30;89.80;;;;;;5121901;27;20937;-79
2022/06/04 13:19:07;;;;;;;6.23;2.57;;;23.40;90.00;;;;;;5120656;27;20828;-80
2022/06/04 13:21:40;;;;;;;7.45;2.22;;;23.40;88.30;;;;;;5126796;27;20454;-79
2022/06/04 13:24:13;;;;;;;6.65;2.60;;;23.50;88.30;;;;;;5135900;27;20439;-80
2022/06/04 13:26:51;;;;;;;7.53;2.38;;;23.60;88.20;;;;;;5108845;27;20408;-79
2022/06/04 13:29:26;;;;;;;6.00;2.38;;;23.50;87.30;;;;;;5111491;27;20446;-79
2022/06/04 13:32:17;;;;;;;7.10;2.30;;;23.40;87.40;;;;;;5119508;27;20438;-79
2022/06/04 13:34:44;;;;;;;5.28;2.47;;;23.40;87.70;;;;;;5117943;27;20782;-79
2022/06/04 13:37:24;;;;;;;5.25;2.45;;;23.50;88.20;;;;;;5116397;27;20407;-79